sensor_id;sensor_type;location;lat;lon;timestamp;pressure;altitude;pressure_sealevel;temperature;humidity
46756;BME280;32506;52.826;-1.192;2022-07-06T00:01:34;102089.69;;;14.40;44.51
46756;BME280;32506;52.826;-1.192;2022-07-06T00:04:01;102089.88;;;14.39;44.43
46756;BME280;32506;52.826;-1.192;2022-07-06T00:06:27;102093.38;;;14.39;44.34
46756;BME280;32506;52.826;-1.192;2022-07-06T00:08:52;102089.69;;;14.40;44.31
46756;BME280;32506;52.826;-1.192;2022-07-06T00:11:18;102093.38;;;14.39;44.50
46756;BME280;32506;52.826;-1.192;2022-07-06T00:13:43;102090.69;;;14.39;44.57
46756;BME280;32506;52.826;-1.192;2022-07-06T00:16:09;102086.16;;;14.40;44.58
46756;BME280;32506;52.826;-1.192;2022-07-06T00:18:34;102087.84;;;14.41;44.76
46756;BME280;32506;52.826;-1.192;2022-07-06T00:21:00;102078.09;;;14.40;44.79
46756;BME280;32506;52.826;-1.192;2022-07-06T00:23:25;102082.63;;;14.39;44.94
46756;BME280;32506;52.826;-1.192;2022-07-06T00:25:51;102079.78;;;14.41;44.82
46756;BME280;32506;52.826;-1.192;2022-07-06T00:28:16;102093.00;;;14.42;44.90
46756;BME280;32506;52.826;-1.192;2022-07-06T00:30:42;102085.97;;;14.41;44.40
46756;BME280;32506;52.826;-1.192;2022-07-06T00:33:07;102081.19;;;14.43;44.58
46756;BME280;32506;52.826;-1.192;2022-07-06T00:35:33;102073.34;;;14.42;44.57
46756;BME280;32506;52.826;-1.192;2022-07-06T00:37:59;102077.69;;;14.43;44.44
46756;BME280;32506;52.826;-1.192;2022-07-06T00:40:24;102077.47;;;14.44;44.88
46756;BME280;32506;52.826;-1.192;2022-07-06T00:42:50;102079.16;;;14.46;44.79
46756;BME280;32506;52.826;-1.192;2022-07-06T00:45:17;102081.84;;;14.46;44.87
46756;BME280;32506;52.826;-1.192;2022-07-06T00:47:44;102073.78;;;14.46;44.58
46756;BME280;32506;52.826;-1.192;2022-07-06T00:50:12;102075.44;;;14.47;44.65
46756;BME280;32506;52.826;-1.192;2022-07-06T00:52:53;102080.59;;;14.48;44.53
46756;BME280;32506;52.826;-1.192;2022-07-06T00:55:22;102074.41;;;14.48;44.58
46756;BME280;32506;52.826;-1.192;2022-07-06T00:57:48;102077.72;;;14.50;44.48
46756;BME280;32506;52.826;-1.192;2022-07-06T01:00:16;102079.59;;;14.49;44.64
46756;BME280;32506;52.826;-1.192;2022-07-06T01:02:43;102082.88;;;14.51;44.76
46756;BME280;32506;52.826;-1.192;2022-07-06T01:05:10;102081.03;;;14.52;44.61
46756;BME280;32506;52.826;-1.192;2022-07-06T01:07:36;102080.84;;;14.53;44.59
46756;BME280;32506;52.826;-1.192;2022-07-06T01:10:04;102079.81;;;14.54;45.25
46756;BME280;32506;52.826;-1.192;2022-07-06T01:12:30;102083.09;;;14.56;45.21
46756;BME280;32506;52.826;-1.192;2022-07-06T01:14:56;102076.06;;;14.55;44.94
46756;BME280;32506;52.826;-1.192;2022-07-06T01:17:23;102079.41;;;14.57;44.92
46756;BME280;32506;52.826;-1.192;2022-07-06T01:19:49;102079.81;;;14.61;44.53
46756;BME280;32506;52.826;-1.192;2022-07-06T01:22:14;102077.13;;;14.61;44.79
46756;BME280;32506;52.826;-1.192;2022-07-06T01:24:40;102076.94;;;14.63;44.54
46756;BME280;32506;52.826;-1.192;2022-07-06T01:27:06;102073.38;;;14.62;44.41
46756;BME280;32506;52.826;-1.192;2022-07-06T01:29:33;102074.06;;;14.64;44.82
46756;BME280;32506;52.826;-1.192;2022-07-06T01:31:58;102067.66;;;14.65;44.94
46756;BME280;32506;52.826;-1.192;2022-07-06T01:34:27;102074.66;;;14.66;44.48
46756;BME280;32506;52.826;-1.192;2022-07-06T01:36:53;102082.56;;;14.68;44.23
46756;BME280;32506;52.826;-1.192;2022-07-06T01:39:19;102090.44;;;14.69;44.04
46756;BME280;32506;52.826;-1.192;2022-07-06T01:41:45;102078.59;;;14.70;44.05
46756;BME280;32506;52.826;-1.192;2022-07-06T01:44:11;102074.06;;;14.71;43.90
46756;BME280;32506;52.826;-1.192;2022-07-06T01:46:36;102066.81;;;14.71;44.10
46756;BME280;32506;52.826;-1.192;2022-07-06T01:49:03;102073.66;;;14.74;43.81
46756;BME280;32506;52.826;-1.192;2022-07-06T01:51:29;102068.28;;;14.74;43.84
46756;BME280;32506;52.826;-1.192;2022-07-06T01:53:54;102072.63;;;14.75;43.89
46756;BME280;32506;52.826;-1.192;2022-07-06T01:56:20;102064.34;;;14.76;43.91
46756;BME280;32506;52.826;-1.192;2022-07-06T01:58:46;102065.16;;;14.77;43.85
46756;BME280;32506;52.826;-1.192;2022-07-06T02:01:17;102063.94;;;14.80;44.02
46756;BME280;32506;52.826;-1.192;2022-07-06T02:03:43;102064.78;;;14.80;44.17
46756;BME280;32506;52.826;-1.192;2022-07-06T02:06:09;102055.69;;;14.81;44.26
46756;BME280;32506;52.826;-1.192;2022-07-06T02:08:36;102046.53;;;14.82;44.26
46756;BME280;32506;52.826;-1.192;2022-07-06T02:11:06;102042.84;;;14.83;44.69
46756;BME280;32506;52.826;-1.192;2022-07-06T02:13:33;102043.47;;;14.85;44.70
46756;BME280;32506;52.826;-1.192;2022-07-06T02:15:59;102043.47;;;14.85;44.71
46756;BME280;32506;52.826;-1.192;2022-07-06T02:18:24;102036.81;;;14.88;44.61
46756;BME280;32506;52.826;-1.192;2022-07-06T02:20:50;102037.66;;;14.88;44.55
46756;BME280;32506;52.826;-1.192;2022-07-06T02:23:15;102035.56;;;14.90;44.57
46756;BME280;32506;52.826;-1.192;2022-07-06T02:25:41;102039.94;;;14.91;44.63
46756;BME280;32506;52.826;-1.192;2022-07-06T02:28:06;102043.47;;;14.92;44.93
46756;BME280;32506;52.826;-1.192;2022-07-06T02:30:31;102038.91;;;14.92;44.79
46756;BME280;32506;52.826;-1.192;2022-07-06T02:32:57;102041.38;;;14.94;45.07
46756;BME280;32506;52.826;-1.192;2022-07-06T02:35:23;102026.91;;;14.95;44.87
46756;BME280;32506;52.826;-1.192;2022-07-06T02:37:48;102022.97;;;14.98;45.19
46756;BME280;32506;52.826;-1.192;2022-07-06T02:40:14;102019.44;;;14.97;45.30
46756;BME280;32506;52.826;-1.192;2022-07-06T02:42:39;102021.09;;;14.98;45.19
46756;BME280;32506;52.826;-1.192;2022-07-06T02:45:05;102009.28;;;14.99;45.17
46756;BME280;32506;52.826;-1.192;2022-07-06T02:47:31;102008.28;;;15.00;45.32
46756;BME280;32506;52.826;-1.192;2022-07-06T02:49:56;101987.53;;;15.01;45.29
46756;BME280;32506;52.826;-1.192;2022-07-06T02:52:22;101991.91;;;15.02;45.34
46756;BME280;32506;52.826;-1.192;2022-07-06T02:54:48;101982.78;;;15.03;45.35
46756;BME280;32506;52.826;-1.192;2022-07-06T02:57:14;101981.75;;;15.04;45.32
46756;BME280;32506;52.826;-1.192;2022-07-06T02:59:40;101979.88;;;15.04;45.51
46756;BME280;32506;52.826;-1.192;2022-07-06T03:02:06;101986.94;;;15.05;45.43
46756;BME280;32506;52.826;-1.192;2022-07-06T03:04:31;101983.41;;;15.05;45.58
46756;BME280;32506;52.826;-1.192;2022-07-06T03:06:57;101984.25;;;15.05;45.73
46756;BME280;32506;52.826;-1.192;2022-07-06T03:09:23;101984.03;;;15.07;45.91
46756;BME280;32506;52.826;-1.192;2022-07-06T03:11:48;101989.63;;;15.05;45.88
46756;BME280;32506;52.826;-1.192;2022-07-06T03:14:13;101982.38;;;15.06;46.02
46756;BME280;32506;52.826;-1.192;2022-07-06T03:16:39;101977.81;;;15.06;46.55
46756;BME280;32506;52.826;-1.192;2022-07-06T03:19:05;101987.75;;;15.06;46.61
46756;BME280;32506;52.826;-1.192;2022-07-06T03:21:30;101993.97;;;15.06;46.92
46756;BME280;32506;52.826;-1.192;2022-07-06T03:23:56;101989.63;;;15.05;46.41
46756;BME280;32506;52.826;-1.192;2022-07-06T03:26:21;101991.25;;;15.06;47.04
46756;BME280;32506;52.826;-1.192;2022-07-06T03:28:47;101982.16;;;15.07;46.88
46756;BME280;32506;52.826;-1.192;2022-07-06T03:31:12;101985.88;;;15.06;47.27
46756;BME280;32506;52.826;-1.192;2022-07-06T03:33:38;101992.72;;;15.09;47.70
46756;BME280;32506;52.826;-1.192;2022-07-06T03:36:03;102004.34;;;15.09;47.39
46756;BME280;32506;52.826;-1.192;2022-07-06T03:38:30;102005.16;;;15.10;47.69
46756;BME280;32506;52.826;-1.192;2022-07-06T03:40:56;102011.34;;;15.10;47.57
46756;BME280;32506;52.826;-1.192;2022-07-06T03:43:21;102018.19;;;15.13;48.11
46756;BME280;32506;52.826;-1.192;2022-07-06T03:45:46;102019.03;;;15.14;48.39
46756;BME280;32506;52.826;-1.192;2022-07-06T03:48:12;102020.66;;;15.15;48.58
46756;BME280;32506;52.826;-1.192;2022-07-06T03:50:37;102010.75;;;15.15;48.52
46756;BME280;32506;52.826;-1.192;2022-07-06T03:53:03;102019.44;;;15.17;49.22
46756;BME280;32506;52.826;-1.192;2022-07-06T03:55:28;102014.88;;;15.18;48.99
46756;BME280;32506;52.826;-1.192;2022-07-06T03:57:54;102014.66;;;15.19;49.02
46756;BME280;32506;52.826;-1.192;2022-07-06T04:00:19;102017.16;;;15.21;49.42
46756;BME280;32506;52.826;-1.192;2022-07-06T04:02:45;102019.63;;;15.22;49.74
46756;BME280;32506;52.826;-1.192;2022-07-06T04:05:10;102007.00;;;15.23;50.01
46756;BME280;32506;52.826;-1.192;2022-07-06T04:07:36;102009.28;;;15.26;49.85
46756;BME280;32506;52.826;-1.192;2022-07-06T04:10:01;102013.63;;;15.27;49.96
46756;BME280;32506;52.826;-1.192;2022-07-06T04:12:27;102000.16;;;15.27;50.05
46756;BME280;32506;52.826;-1.192;2022-07-06T04:14:56;102002.44;;;15.30;51.28
46756;BME280;32506;52.826;-1.192;2022-07-06T04:17:21;101999.53;;;15.32;50.66
46756;BME280;32506;52.826;-1.192;2022-07-06T04:20:06;101989.59;;;15.32;51.11
46756;BME280;32506;52.826;-1.192;2022-07-06T04:22:31;101993.94;;;15.33;50.97
46756;BME280;32506;52.826;-1.192;2022-07-06T04:24:57;101989.97;;;15.36;52.09
46756;BME280;32506;52.826;-1.192;2022-07-06T04:27:22;102000.53;;;15.37;52.57
46756;BME280;32506;52.826;-1.192;2022-07-06T04:29:48;101994.13;;;15.38;52.43
46756;BME280;32506;52.826;-1.192;2022-07-06T04:32:13;101995.56;;;15.41;52.10
46756;BME280;32506;52.826;-1.192;2022-07-06T04:34:38;101997.22;;;15.42;53.22
46756;BME280;32506;52.826;-1.192;2022-07-06T04:37:04;102002.19;;;15.45;53.36
46756;BME280;32506;52.826;-1.192;2022-07-06T04:39:29;101994.31;;;15.43;52.71
46756;BME280;32506;52.826;-1.192;2022-07-06T04:41:57;101986.84;;;15.46;52.92
46756;BME280;32506;52.826;-1.192;2022-07-06T04:44:22;101983.75;;;15.49;53.13
46756;BME280;32506;52.826;-1.192;2022-07-06T04:46:48;101985.41;;;15.50;53.66
46756;BME280;32506;52.826;-1.192;2022-07-06T04:49:13;101995.97;;;15.51;53.55
46756;BME280;32506;52.826;-1.192;2022-07-06T04:51:39;102000.13;;;15.54;52.96
46756;BME280;32506;52.826;-1.192;2022-07-06T04:54:04;102000.72;;;15.56;53.45
46756;BME280;32506;52.826;-1.192;2022-07-06T04:56:30;101998.88;;;15.56;52.88
46756;BME280;32506;52.826;-1.192;2022-07-06T04:58:56;102011.06;;;15.59;52.94
46756;BME280;32506;52.826;-1.192;2022-07-06T05:01:21;102005.66;;;15.59;53.00
46756;BME280;32506;52.826;-1.192;2022-07-06T05:03:47;102007.97;;;15.62;52.99
46756;BME280;32506;52.826;-1.192;2022-07-06T05:06:12;102003.38;;;15.63;53.33
46756;BME280;32506;52.826;-1.192;2022-07-06T05:08:38;102000.47;;;15.64;52.73
46756;BME280;32506;52.826;-1.192;2022-07-06T05:11:03;102000.25;;;15.66;53.34
46756;BME280;32506;52.826;-1.192;2022-07-06T05:13:29;101997.38;;;15.67;53.17
46756;BME280;32506;52.826;-1.192;2022-07-06T05:15:54;102007.94;;;15.69;53.08
46756;BME280;32506;52.826;-1.192;2022-07-06T05:18:20;102004.81;;;15.72;53.33
46756;BME280;32506;52.826;-1.192;2022-07-06T05:20:45;102000.06;;;15.74;53.31
46756;BME280;32506;52.826;-1.192;2022-07-06T05:23:11;101997.13;;;15.75;54.00
46756;BME280;32506;52.826;-1.192;2022-07-06T05:25:36;102005.59;;;15.79;53.47
46756;BME280;32506;52.826;-1.192;2022-07-06T05:28:02;102000.06;;;15.81;53.89
46756;BME280;32506;52.826;-1.192;2022-07-06T05:30:28;101996.13;;;15.83;53.78
46756;BME280;32506;52.826;-1.192;2022-07-06T05:32:54;102001.88;;;15.87;54.06
46756;BME280;32506;52.826;-1.192;2022-07-06T05:35:19;101999.59;;;15.90;54.01
46756;BME280;32506;52.826;-1.192;2022-07-06T05:37:45;102003.53;;;15.94;54.74
46756;BME280;32506;52.826;-1.192;2022-07-06T05:40:12;102007.44;;;15.99;54.36
46756;BME280;32506;52.826;-1.192;2022-07-06T05:42:38;102010.53;;;16.02;55.24
46756;BME280;32506;52.826;-1.192;2022-07-06T05:45:04;102014.47;;;16.06;54.94
46756;BME280;32506;52.826;-1.192;2022-07-06T05:47:30;102009.44;;;16.10;55.63
46756;BME280;32506;52.826;-1.192;2022-07-06T05:50:14;102002.41;;;16.16;56.23
46756;BME280;32506;52.826;-1.192;2022-07-06T05:52:44;101994.69;;;16.19;56.26
46756;BME280;32506;52.826;-1.192;2022-07-06T05:55:11;101987.63;;;16.25;55.76
46756;BME280;32506;52.826;-1.192;2022-07-06T05:57:38;101986.13;;;16.29;55.78
46756;BME280;32506;52.826;-1.192;2022-07-06T06:00:04;101977.16;;;16.35;57.29
46756;BME280;32506;52.826;-1.192;2022-07-06T06:02:38;101991.88;;;16.39;56.76
46756;BME280;32506;52.826;-1.192;2022-07-06T06:05:05;102001.19;;;16.43;56.96
46756;BME280;32506;52.826;-1.192;2022-07-06T06:07:33;101996.81;;;16.49;56.73
46756;BME280;32506;52.826;-1.192;2022-07-06T06:10:05;102005.03;;;16.54;57.10
46756;BME280;32506;52.826;-1.192;2022-07-06T06:12:31;102007.91;;;16.59;57.07
46756;BME280;32506;52.826;-1.192;2022-07-06T06:14:56;102007.50;;;16.63;57.78
46756;BME280;32506;52.826;-1.192;2022-07-06T06:17:22;102004.13;;;16.67;56.99
46756;BME280;32506;52.826;-1.192;2022-07-06T06:19:47;102000.56;;;16.73;57.56
46756;BME280;32506;52.826;-1.192;2022-07-06T06:22:13;101989.94;;;16.78;58.31
46756;BME280;32506;52.826;-1.192;2022-07-06T06:24:39;101997.16;;;16.85;58.25
46756;BME280;32506;52.826;-1.192;2022-07-06T06:27:04;101996.31;;;16.91;58.00
46756;BME280;32506;52.826;-1.192;2022-07-06T06:29:30;101994.59;;;16.97;57.90
46756;BME280;32506;52.826;-1.192;2022-07-06T06:31:55;101995.56;;;17.02;58.19
46756;BME280;32506;52.826;-1.192;2022-07-06T06:34:21;101990.13;;;17.09;57.90
46756;BME280;32506;52.826;-1.192;2022-07-06T06:36:46;101988.19;;;17.16;57.25
46756;BME280;32506;52.826;-1.192;2022-07-06T06:39:12;101999.75;;;17.23;58.19
46756;BME280;32506;52.826;-1.192;2022-07-06T06:41:37;102000.72;;;17.29;58.10
46756;BME280;32506;52.826;-1.192;2022-07-06T06:44:03;102006.88;;;17.36;58.00
46756;BME280;32506;52.826;-1.192;2022-07-06T06:46:28;102012.03;;;17.44;57.56
46756;BME280;32506;52.826;-1.192;2022-07-06T06:48:54;102019.22;;;17.51;57.67
46756;BME280;32506;52.826;-1.192;2022-07-06T06:51:20;102022.88;;;17.56;57.01
46756;BME280;32506;52.826;-1.192;2022-07-06T06:53:46;102028.22;;;17.63;56.90
46756;BME280;32506;52.826;-1.192;2022-07-06T06:56:12;102037.34;;;17.69;57.16
46756;BME280;32506;52.826;-1.192;2022-07-06T06:58:37;102046.19;;;17.76;57.30
46756;BME280;32506;52.826;-1.192;2022-07-06T07:01:03;102038.22;;;17.81;56.63
46756;BME280;32506;52.826;-1.192;2022-07-06T07:03:30;102035.91;;;17.85;56.48
46756;BME280;32506;52.826;-1.192;2022-07-06T07:05:55;102036.88;;;17.90;56.13
46756;BME280;32506;52.826;-1.192;2022-07-06T07:08:21;102037.25;;;17.94;56.09
46756;BME280;32506;52.826;-1.192;2022-07-06T07:10:46;102037.63;;;17.98;55.83
46756;BME280;32506;52.826;-1.192;2022-07-06T07:13:12;102038.84;;;18.02;55.50
46756;BME280;32506;52.826;-1.192;2022-07-06T07:15:37;102043.81;;;18.05;55.72
46756;BME280;32506;52.826;-1.192;2022-07-06T07:18:03;102037.94;;;18.08;55.43
46756;BME280;32506;52.826;-1.192;2022-07-06T07:20:28;102037.00;;;18.14;55.59
46756;BME280;32506;52.826;-1.192;2022-07-06T07:22:56;102041.97;;;18.17;55.32
46756;BME280;32506;52.826;-1.192;2022-07-06T07:25:21;102044.00;;;18.22;55.24
46756;BME280;32506;52.826;-1.192;2022-07-06T07:27:46;102045.41;;;18.24;55.15
46756;BME280;32506;52.826;-1.192;2022-07-06T07:30:12;102021.69;;;18.26;55.22
46756;BME280;32506;52.826;-1.192;2022-07-06T07:32:37;102022.03;;;18.30;54.79
46756;BME280;32506;52.826;-1.192;2022-07-06T07:35:06;102019.69;;;18.34;54.93
46756;BME280;32506;52.826;-1.192;2022-07-06T07:37:31;102015.47;;;18.38;54.88
46756;BME280;32506;52.826;-1.192;2022-07-06T07:39:57;102017.50;;;18.42;54.83
46756;BME280;32506;52.826;-1.192;2022-07-06T07:42:23;102014.09;;;18.47;55.10
46756;BME280;32506;52.826;-1.192;2022-07-06T07:44:48;102001.72;;;18.51;55.21
46756;BME280;32506;52.826;-1.192;2022-07-06T07:47:13;102005.38;;;18.57;55.16
46756;BME280;32506;52.826;-1.192;2022-07-06T07:49:39;102001.75;;;18.63;55.07
46756;BME280;32506;52.826;-1.192;2022-07-06T07:52:04;101996.47;;;18.68;54.90
46756;BME280;32506;52.826;-1.192;2022-07-06T07:54:30;102000.94;;;18.74;55.05
46756;BME280;32506;52.826;-1.192;2022-07-06T07:56:56;102001.69;;;18.82;54.74
46756;BME280;32506;52.826;-1.192;2022-07-06T07:59:22;101994.28;;;18.89;54.46
46756;BME280;32506;52.826;-1.192;2022-07-06T08:01:47;101999.34;;;18.97;54.63
46756;BME280;32506;52.826;-1.192;2022-07-06T08:04:13;101998.44;;;19.03;54.76
46756;BME280;32506;52.826;-1.192;2022-07-06T08:06:38;102015.16;;;19.12;54.53
46756;BME280;32506;52.826;-1.192;2022-07-06T08:09:04;102013.16;;;19.19;54.74
46756;BME280;32506;52.826;-1.192;2022-07-06T08:11:30;102005.97;;;19.25;54.37
46756;BME280;32506;52.826;-1.192;2022-07-06T08:13:55;102006.91;;;19.31;54.13
46756;BME280;32506;52.826;-1.192;2022-07-06T08:16:21;102001.34;;;19.37;54.03
46756;BME280;32506;52.826;-1.192;2022-07-06T08:18:46;102001.47;;;19.42;54.30
46756;BME280;32506;52.826;-1.192;2022-07-06T08:21:12;101998.88;;;19.48;53.90
46756;BME280;32506;52.826;-1.192;2022-07-06T08:23:37;102002.50;;;19.53;53.75
46756;BME280;32506;52.826;-1.192;2022-07-06T08:26:03;102005.34;;;19.58;53.63
46756;BME280;32506;52.826;-1.192;2022-07-06T08:28:29;102007.09;;;19.65;53.57
46756;BME280;32506;52.826;-1.192;2022-07-06T08:30:55;102005.31;;;19.70;53.63
46756;BME280;32506;52.826;-1.192;2022-07-06T08:33:20;102005.44;;;19.75;53.29
46756;BME280;32506;52.826;-1.192;2022-07-06T08:35:46;101994.91;;;19.79;53.28
46756;BME280;32506;52.826;-1.192;2022-07-06T08:38:11;102001.53;;;19.83;53.10
46756;BME280;32506;52.826;-1.192;2022-07-06T08:40:39;102008.97;;;19.88;53.00
46756;BME280;32506;52.826;-1.192;2022-07-06T08:43:05;102012.84;;;19.92;53.24
46756;BME280;32506;52.826;-1.192;2022-07-06T08:45:33;102014.00;;;19.96;52.64
46756;BME280;32506;52.826;-1.192;2022-07-06T08:48:04;102016.81;;;20.01;52.75
46756;BME280;32506;52.826;-1.192;2022-07-06T08:50:31;102018.22;;;20.04;52.64
46756;BME280;32506;52.826;-1.192;2022-07-06T08:52:57;102020.44;;;20.07;52.45
46756;BME280;32506;52.826;-1.192;2022-07-06T08:55:24;102025.38;;;20.10;52.62
46756;BME280;32506;52.826;-1.192;2022-07-06T08:57:51;102023.25;;;20.12;52.35
46756;BME280;32506;52.826;-1.192;2022-07-06T09:00:16;102030.09;;;20.15;52.64
46756;BME280;32506;52.826;-1.192;2022-07-06T09:02:42;102035.03;;;20.18;52.73
46756;BME280;32506;52.826;-1.192;2022-07-06T09:05:09;102023.94;;;20.19;52.62
46756;BME280;32506;52.826;-1.192;2022-07-06T09:07:40;102031.59;;;20.22;52.16
46756;BME280;32506;52.826;-1.192;2022-07-06T09:10:07;102028.16;;;20.27;52.03
46756;BME280;32506;52.826;-1.192;2022-07-06T09:12:33;102015.25;;;20.34;52.00
46756;BME280;32506;52.826;-1.192;2022-07-06T09:14:59;102020.63;;;20.46;51.88
46756;BME280;32506;52.826;-1.192;2022-07-06T09:17:27;102026.25;;;20.56;52.00
46756;BME280;32506;52.826;-1.192;2022-07-06T09:19:54;102015.53;;;20.67;51.93
46756;BME280;32506;52.826;-1.192;2022-07-06T09:22:27;102014.44;;;20.79;51.96
46756;BME280;32506;52.826;-1.192;2022-07-06T09:24:52;102017.31;;;20.90;51.66
46756;BME280;32506;52.826;-1.192;2022-07-06T09:27:18;102018.81;;;20.98;51.61
46756;BME280;32506;52.826;-1.192;2022-07-06T09:29:45;102015.41;;;21.07;51.45
46756;BME280;32506;52.826;-1.192;2022-07-06T09:32:10;102008.75;;;21.15;51.61
46756;BME280;32506;52.826;-1.192;2022-07-06T09:34:46;102007.00;;;21.26;50.67
46756;BME280;32506;52.826;-1.192;2022-07-06T09:37:13;102011.91;;;21.29;51.58
46756;BME280;32506;52.826;-1.192;2022-07-06T09:39:39;102011.09;;;21.28;51.54
46756;BME280;32506;52.826;-1.192;2022-07-06T09:42:06;102012.09;;;21.22;52.26
46756;BME280;32506;52.826;-1.192;2022-07-06T09:44:38;102019.63;;;21.15;51.85
46756;BME280;32506;52.826;-1.192;2022-07-06T09:47:09;102029.56;;;21.09;52.04
46756;BME280;32506;52.826;-1.192;2022-07-06T09:49:35;102022.16;;;21.05;52.40
46756;BME280;32506;52.826;-1.192;2022-07-06T09:52:04;102022.09;;;21.00;52.41
46756;BME280;32506;52.826;-1.192;2022-07-06T09:54:30;102020.94;;;20.95;52.58
46756;BME280;32506;52.826;-1.192;2022-07-06T09:56:56;102033.13;;;20.93;52.90
46756;BME280;32506;52.826;-1.192;2022-07-06T09:59:25;102030.91;;;20.90;53.11
46756;BME280;32506;52.826;-1.192;2022-07-06T10:01:53;102032.22;;;20.87;53.53
46756;BME280;32506;52.826;-1.192;2022-07-06T10:04:20;102031.38;;;20.87;53.46
46756;BME280;32506;52.826;-1.192;2022-07-06T10:06:46;102027.59;;;20.88;53.49
46756;BME280;32506;52.826;-1.192;2022-07-06T10:09:13;102018.13;;;20.90;53.15
46756;BME280;32506;52.826;-1.192;2022-07-06T10:11:47;102020.44;;;20.99;53.22
46756;BME280;32506;52.826;-1.192;2022-07-06T10:14:17;102017.63;;;21.10;52.78
46756;BME280;32506;52.826;-1.192;2022-07-06T10:16:45;102024.63;;;21.23;52.43
46756;BME280;32506;52.826;-1.192;2022-07-06T10:19:11;102012.81;;;21.35;51.93
46756;BME280;32506;52.826;-1.192;2022-07-06T10:21:38;102018.13;;;21.46;51.67
46756;BME280;32506;52.826;-1.192;2022-07-06T10:24:08;102017.72;;;21.55;50.83
46756;BME280;32506;52.826;-1.192;2022-07-06T10:26:35;102020.00;;;21.63;50.96
46756;BME280;32506;52.826;-1.192;2022-07-06T10:29:05;102034.31;;;21.75;51.04
46756;BME280;32506;52.826;-1.192;2022-07-06T10:31:33;102016.72;;;21.83;50.67
46756;BME280;32506;52.826;-1.192;2022-07-06T10:34:00;102015.72;;;21.89;49.44
46756;BME280;32506;52.826;-1.192;2022-07-06T10:36:28;102018.75;;;21.93;49.30
46756;BME280;32506;52.826;-1.192;2022-07-06T10:38:54;102007.66;;;22.00;49.72
46756;BME280;32506;52.826;-1.192;2022-07-06T10:41:37;102001.50;;;22.09;49.33
46756;BME280;32506;52.826;-1.192;2022-07-06T10:44:25;102005.09;;;22.15;49.50
46756;BME280;32506;52.826;-1.192;2022-07-06T10:46:55;101997.25;;;22.19;49.13
46756;BME280;32506;52.826;-1.192;2022-07-06T10:49:22;101993.75;;;22.23;49.01
46756;BME280;32506;52.826;-1.192;2022-07-06T10:51:48;101991.88;;;22.29;49.09
46756;BME280;32506;52.826;-1.192;2022-07-06T10:54:15;101985.38;;;22.30;48.55
46756;BME280;32506;52.826;-1.192;2022-07-06T10:56:49;101983.75;;;22.34;48.45
46756;BME280;32506;52.826;-1.192;2022-07-06T10:59:23;101984.13;;;22.38;48.66
46756;BME280;32506;52.826;-1.192;2022-07-06T11:02:17;101984.22;;;22.48;48.28
46756;BME280;32506;52.826;-1.192;2022-07-06T11:04:44;101973.88;;;22.50;48.14
46756;BME280;32506;52.826;-1.192;2022-07-06T11:09:37;101981.16;;;22.77;48.38
46756;BME280;32506;52.826;-1.192;2022-07-06T11:12:17;101980.75;;;22.95;47.88
46756;BME280;32506;52.826;-1.192;2022-07-06T11:14:45;101982.75;;;23.10;47.22
46756;BME280;32506;52.826;-1.192;2022-07-06T11:17:11;101987.19;;;23.22;46.78
46756;BME280;32506;52.826;-1.192;2022-07-06T11:19:38;101979.88;;;23.27;46.33
46756;BME280;32506;52.826;-1.192;2022-07-06T11:22:15;101993.28;;;23.34;46.26
46756;BME280;32506;52.826;-1.192;2022-07-06T11:24:41;101991.13;;;23.41;45.01
46756;BME280;32506;52.826;-1.192;2022-07-06T11:27:07;101985.41;;;23.48;44.07
46756;BME280;32506;52.826;-1.192;2022-07-06T11:29:34;101986.00;;;23.50;43.93
46756;BME280;32506;52.826;-1.192;2022-07-06T11:32:02;101984.59;;;23.53;44.16
46756;BME280;32506;52.826;-1.192;2022-07-06T11:34:31;101977.56;;;23.57;44.19
46756;BME280;32506;52.826;-1.192;2022-07-06T11:36:58;101970.22;;;23.68;44.69
46756;BME280;32506;52.826;-1.192;2022-07-06T11:39:29;101971.88;;;23.79;44.36
46756;BME280;32506;52.826;-1.192;2022-07-06T11:41:55;101975.75;;;23.88;42.81
46756;BME280;32506;52.826;-1.192;2022-07-06T11:44:21;101974.13;;;23.92;42.91
46756;BME280;32506;52.826;-1.192;2022-07-06T11:46:47;101975.50;;;23.95;42.95
46756;BME280;32506;52.826;-1.192;2022-07-06T11:49:12;101988.88;;;23.96;42.50
46756;BME280;32506;52.826;-1.192;2022-07-06T11:51:40;101991.09;;;23.94;42.22
46756;BME280;32506;52.826;-1.192;2022-07-06T11:56:34;101992.97;;;23.89;41.64
46756;BME280;32506;52.826;-1.192;2022-07-06T11:59:00;101985.56;;;23.84;41.63
46756;BME280;32506;52.826;-1.192;2022-07-06T12:01:27;101985.53;;;23.79;41.59
46756;BME280;32506;52.826;-1.192;2022-07-06T12:03:57;101984.47;;;23.80;42.08
46756;BME280;32506;52.826;-1.192;2022-07-06T12:06:24;101973.00;;;23.83;41.70
46756;BME280;32506;52.826;-1.192;2022-07-06T12:11:28;101970.81;;;23.85;40.77
46756;BME280;32506;52.826;-1.192;2022-07-06T12:13:57;101960.44;;;23.87;40.58
46756;BME280;32506;52.826;-1.192;2022-07-06T12:16:30;101949.84;;;23.91;41.04
46756;BME280;32506;52.826;-1.192;2022-07-06T12:18:55;101950.13;;;23.94;40.51
46756;BME280;32506;52.826;-1.192;2022-07-06T12:21:21;101955.06;;;24.03;40.26
46756;BME280;32506;52.826;-1.192;2022-07-06T12:23:51;101965.16;;;24.12;40.78
46756;BME280;32506;52.826;-1.192;2022-07-06T12:26:25;101958.34;;;24.20;40.11
46756;BME280;32506;52.826;-1.192;2022-07-06T12:29:08;101952.06;;;24.25;39.85
46756;BME280;32506;52.826;-1.192;2022-07-06T12:31:38;101940.34;;;24.24;40.13
46756;BME280;32506;52.826;-1.192;2022-07-06T12:34:05;101933.22;;;24.23;40.02
46756;BME280;32506;52.826;-1.192;2022-07-06T12:39:14;101934.88;;;24.24;39.84
46756;BME280;32506;52.826;-1.192;2022-07-06T12:44:17;101933.22;;;24.28;40.14
46756;BME280;32506;52.826;-1.192;2022-07-06T12:46:43;101925.31;;;24.32;40.24
46756;BME280;32506;52.826;-1.192;2022-07-06T12:49:18;101926.13;;;24.38;40.30
46756;BME280;32506;52.826;-1.192;2022-07-06T12:51:55;101919.31;;;24.45;40.29